sensor_id;sensor_type;location;lat;lon;timestamp;pressure;altitude;pressure_sealevel;temperature;humidity
70488;BME280;57976;48.174;16.370;2022-11-20T19:37:44;98711.05;;;5.89;90.62
70488;BME280;57976;48.174;16.370;2022-11-20T19:39:53;98712.45;;;5.90;90.19
70488;BME280;57976;48.174;16.370;2022-11-20T19:42:00;98711.81;;;5.94;90.03
70488;BME280;57976;48.174;16.370;2022-11-20T19:44:09;98707.98;;;6.00;89.74
70488;BME280;57976;48.174;16.370;2022-11-20T19:46:17;98707.56;;;6.04;89.73
70488;BME280;57976;48.174;16.370;2022-11-20T19:48:25;98700.93;;;6.08;89.53
70488;BME280;57976;48.174;16.370;2022-11-20T19:50:39;98702.44;;;6.11;88.97
70488;BME280;57976;48.174;16.370;2022-11-20T19:52:46;98701.02;;;6.16;88.96
70488;BME280;57976;48.174;16.370;2022-11-20T19:55:03;98702.06;;;6.19;88.83
70488;BME280;57976;48.174;16.370;2022-11-20T19:57:09;98699.33;;;6.22;89.01
70488;BME280;57976;48.174;16.370;2022-11-20T19:59:16;98699.21;;;6.26;88.58
70488;BME280;57976;48.174;16.370;2022-11-20T20:01:29;98696.63;;;6.28;88.35
70488;BME280;57976;48.174;16.370;2022-11-20T20:03:37;98697.77;;;6.32;88.28
70488;BME280;57976;48.174;16.370;2022-11-20T20:05:43;98695.54;;;6.34;88.38
70488;BME280;57976;48.174;16.370;2022-11-20T20:07:50;98692.60;;;6.36;88.22
70488;BME280;57976;48.174;16.370;2022-11-20T20:09:57;98697.33;;;6.38;88.29
70488;BME280;57976;48.174;16.370;2022-11-20T20:12:04;98699.57;;;6.38;88.07
70488;BME280;57976;48.174;16.370;2022-11-20T20:14:12;98700.63;;;6.38;87.93
70488;BME280;57976;48.174;16.370;2022-11-20T20:16:21;98701.39;;;6.38;87.96
70488;BME280;57976;48.174;16.370;2022-11-20T20:18:29;98698.61;;;6.36;87.75
70488;BME280;57976;48.174;16.370;2022-11-20T20:20:40;98698.64;;;6.35;87.84
70488;BME280;57976;48.174;16.370;2022-11-20T20:22:48;98697.66;;;6.34;87.74
70488;BME280;57976;48.174;16.370;2022-11-20T20:24:55;98701.54;;;6.33;87.64
70488;BME280;57976;48.174;16.370;2022-11-20T20:27:02;98707.85;;;6.31;87.63
70488;BME280;57976;48.174;16.370;2022-11-20T20:29:08;98714.62;;;6.25;87.03
70488;BME280;57976;48.174;16.370;2022-11-20T20:31:17;98715.72;;;6.10;86.82
70488;BME280;57976;48.174;16.370;2022-11-20T20:33:25;98712.91;;;5.95;87.33
70488;BME280;57976;48.174;16.370;2022-11-20T20:35:33;98717.39;;;5.86;87.62
70488;BME280;57976;48.174;16.370;2022-11-20T20:37:38;98715.21;;;5.79;88.51
70488;BME280;57976;48.174;16.370;2022-11-20T20:39:45;98711.98;;;5.70;88.37
70488;BME280;57976;48.174;16.370;2022-11-20T20:41:56;98710.45;;;5.59;88.31
70488;BME280;57976;48.174;16.370;2022-11-20T20:44:05;98708.80;;;5.51;88.47
70488;BME280;57976;48.174;16.370;2022-11-20T20:46:12;98712.05;;;5.47;89.49
70488;BME280;57976;48.174;16.370;2022-11-20T20:48:20;98715.14;;;5.41;88.88
70488;BME280;57976;48.174;16.370;2022-11-20T20:50:34;98707.65;;;5.34;89.61
70488;BME280;57976;48.174;16.370;2022-11-20T20:52:41;98709.27;;;5.28;89.54
70488;BME280;57976;48.174;16.370;2022-11-20T20:54:47;98711.84;;;5.22;89.86
70488;BME280;57976;48.174;16.370;2022-11-20T20:56:54;98709.85;;;5.20;90.57
70488;BME280;57976;48.174;16.370;2022-11-20T20:59:01;98713.45;;;5.19;90.58
70488;BME280;57976;48.174;16.370;2022-11-20T21:01:13;98720.92;;;5.19;91.01
70488;BME280;57976;48.174;16.370;2022-11-20T21:03:22;98716.45;;;5.21;91.25
70488;BME280;57976;48.174;16.370;2022-11-20T21:05:30;98723.71;;;5.26;91.53
70488;BME280;57976;48.174;16.370;2022-11-20T21:07:36;98715.44;;;5.31;91.38
70488;BME280;57976;48.174;16.370;2022-11-20T21:09:55;98711.95;;;5.28;90.79
70488;BME280;57976;48.174;16.370;2022-11-20T21:12:00;98709.38;;;5.27;90.51
70488;BME280;57976;48.174;16.370;2022-11-20T21:14:05;98703.83;;;5.25;90.54
70488;BME280;57976;48.174;16.370;2022-11-20T21:16:12;98700.15;;;5.27;91.95
70488;BME280;57976;48.174;16.370;2022-11-20T21:18:19;98698.17;;;5.31;92.45
70488;BME280;57976;48.174;16.370;2022-11-20T21:20:24;98691.86;;;5.32;91.31
70488;BME280;57976;48.174;16.370;2022-11-20T21:22:31;98686.89;;;5.31;91.03
70488;BME280;57976;48.174;16.370;2022-11-20T21:24:40;98688.50;;;5.30;90.99
70488;BME280;57976;48.174;16.370;2022-11-20T21:26:46;98683.25;;;5.32;91.37
70488;BME280;57976;48.174;16.370;2022-11-20T21:28:51;98681.71;;;5.36;90.92
70488;BME280;57976;48.174;16.370;2022-11-20T21:31:05;98683.17;;;5.39;90.95
70488;BME280;57976;48.174;16.370;2022-11-20T21:33:13;98686.38;;;5.41;90.69
70488;BME280;57976;48.174;16.370;2022-11-20T21:35:19;98679.62;;;5.41;90.30
70488;BME280;57976;48.174;16.370;2022-11-20T21:37:27;98674.47;;;5.35;90.45
70488;BME280;57976;48.174;16.370;2022-11-20T21:39:32;98679.14;;;5.27;90.14
70488;BME280;57976;48.174;16.370;2022-11-20T21:41:37;98678.98;;;5.22;90.49
70488;BME280;57976;48.174;16.370;2022-11-20T21:43:42;98682.30;;;5.19;90.63
70488;BME280;57976;48.174;16.370;2022-11-20T21:45:47;98687.64;;;5.14;90.83
70488;BME280;57976;48.174;16.370;2022-11-20T21:47:55;98687.86;;;5.13;90.74
70488;BME280;57976;48.174;16.370;2022-11-20T21:50:00;98692.66;;;5.06;90.69
70488;BME280;57976;48.174;16.370;2022-11-20T21:52:05;98692.02;;;4.97;90.76
70488;BME280;57976;48.174;16.370;2022-11-20T21:54:11;98694.58;;;4.86;90.62
70488;BME280;57976;48.174;16.370;2022-11-20T21:56:17;98688.89;;;4.75;91.00
70488;BME280;57976;48.174;16.370;2022-11-20T21:58:24;98688.02;;;4.64;91.17
70488;BME280;57976;48.174;16.370;2022-11-20T22:00:29;98685.31;;;4.58;91.77
70488;BME280;57976;48.174;16.370;2022-11-20T22:02:34;98682.95;;;4.52;92.52
70488;BME280;57976;48.174;16.370;2022-11-20T22:04:38;98681.77;;;4.52;92.62
70488;BME280;57976;48.174;16.370;2022-11-20T22:06:43;98684.08;;;4.52;92.70
70488;BME280;57976;48.174;16.370;2022-11-20T22:08:48;98686.95;;;4.53;93.31
70488;BME280;57976;48.174;16.370;2022-11-20T22:10:58;98687.41;;;4.55;93.48
70488;BME280;57976;48.174;16.370;2022-11-20T22:13:03;98689.56;;;4.57;93.45
70488;BME280;57976;48.174;16.370;2022-11-20T22:15:11;98689.71;;;4.61;93.87
70488;BME280;57976;48.174;16.370;2022-11-20T22:17:16;98691.05;;;4.66;93.83
70488;BME280;57976;48.174;16.370;2022-11-20T22:19:21;98692.98;;;4.70;94.11
70488;BME280;57976;48.174;16.370;2022-11-20T22:21:28;98694.19;;;4.77;94.02
70488;BME280;57976;48.174;16.370;2022-11-20T22:23:33;98690.86;;;4.80;93.96
70488;BME280;57976;48.174;16.370;2022-11-20T22:25:38;98696.02;;;4.86;94.14
70488;BME280;57976;48.174;16.370;2022-11-20T22:27:44;98701.16;;;4.90;93.79
70488;BME280;57976;48.174;16.370;2022-11-20T22:29:49;98702.27;;;4.93;93.69
70488;BME280;57976;48.174;16.370;2022-11-20T22:31:53;98701.87;;;4.96;93.72
70488;BME280;57976;48.174;16.370;2022-11-20T22:33:59;98697.98;;;4.97;93.77
70488;BME280;57976;48.174;16.370;2022-11-20T22:36:07;98696.88;;;4.99;93.54
70488;BME280;57976;48.174;16.370;2022-11-20T22:38:12;98693.71;;;5.02;93.54
70488;BME280;57976;48.174;16.370;2022-11-20T22:40:17;98695.61;;;5.05;93.55
70488;BME280;57976;48.174;16.370;2022-11-20T22:42:21;98695.43;;;5.08;93.53
70488;BME280;57976;48.174;16.370;2022-11-20T22:44:26;98695.83;;;5.07;92.93
70488;BME280;57976;48.174;16.370;2022-11-20T22:46:32;98695.54;;;5.01;91.90
70488;BME280;57976;48.174;16.370;2022-11-20T22:48:39;98692.21;;;4.94;91.98
70488;BME280;57976;48.174;16.370;2022-11-20T22:50:44;98694.78;;;4.89;91.95
70488;BME280;57976;48.174;16.370;2022-11-20T22:52:48;98697.11;;;4.90;92.05
70488;BME280;57976;48.174;16.370;2022-11-20T22:54:53;98692.29;;;4.88;91.84
70488;BME280;57976;48.174;16.370;2022-11-20T22:56:58;98694.75;;;4.89;91.98
70488;BME280;57976;48.174;16.370;2022-11-20T22:59:03;98691.67;;;4.93;92.20
70488;BME280;57976;48.174;16.370;2022-11-20T23:01:09;98687.98;;;4.96;91.95
70488;BME280;57976;48.174;16.370;2022-11-20T23:03:14;98687.65;;;4.93;91.37
70488;BME280;57976;48.174;16.370;2022-11-20T23:05:19;98687.73;;;4.90;91.68
70488;BME280;57976;48.174;16.370;2022-11-20T23:07:24;98689.90;;;4.88;91.45
70488;BME280;57976;48.174;16.370;2022-11-20T23:09:28;98686.08;;;4.86;91.49
70488;BME280;57976;48.174;16.370;2022-11-20T23:11:34;98686.56;;;4.83;91.35
70488;BME280;57976;48.174;16.370;2022-11-20T23:13:39;98682.36;;;4.79;91.23
70488;BME280;57976;48.174;16.370;2022-11-20T23:15:44;98675.29;;;4.78;91.28
70488;BME280;57976;48.174;16.370;2022-11-20T23:17:49;98671.53;;;4.79;91.41
70488;BME280;57976;48.174;16.370;2022-11-20T23:19:54;98670.16;;;4.80;91.36
70488;BME280;57976;48.174;16.370;2022-11-20T23:21:58;98664.58;;;4.78;91.31
70488;BME280;57976;48.174;16.370;2022-11-20T23:24:04;98662.06;;;4.78;91.42
70488;BME280;57976;48.174;16.370;2022-11-20T23:26:10;98663.48;;;4.78;91.42
70488;BME280;57976;48.174;16.370;2022-11-20T23:28:15;98666.02;;;4.76;91.20
70488;BME280;57976;48.174;16.370;2022-11-20T23:30:20;98662.83;;;4.75;91.33
70488;BME280;57976;48.174;16.370;2022-11-20T23:32:24;98664.64;;;4.75;91.37
70488;BME280;57976;48.174;16.370;2022-11-20T23:34:29;98663.64;;;4.75;91.48
70488;BME280;57976;48.174;16.370;2022-11-20T23:36:34;98661.45;;;4.78;91.30
70488;BME280;57976;48.174;16.370;2022-11-20T23:38:39;98659.65;;;4.83;91.73
70488;BME280;57976;48.174;16.370;2022-11-20T23:40:47;98660.62;;;4.87;91.49
70488;BME280;57976;48.174;16.370;2022-11-20T23:42:51;98662.42;;;4.94;91.45
70488;BME280;57976;48.174;16.370;2022-11-20T23:44:56;98662.41;;;4.99;90.64
70488;BME280;57976;48.174;16.370;2022-11-20T23:47:01;98661.09;;;5.03;90.98
70488;BME280;57976;48.174;16.370;2022-11-20T23:49:06;98662.21;;;5.08;90.74
70488;BME280;57976;48.174;16.370;2022-11-20T23:51:11;98663.27;;;5.14;90.35
70488;BME280;57976;48.174;16.370;2022-11-20T23:53:16;98662.34;;;5.20;90.44
70488;BME280;57976;48.174;16.370;2022-11-20T23:55:21;98666.95;;;5.26;90.34
70488;BME280;57976;48.174;16.370;2022-11-20T23:57:25;98664.18;;;5.29;89.75
70488;BME280;57976;48.174;16.370;2022-11-20T23:59:30;98662.59;;;5.31;89.96
